Captain Jimmy T Moran — WDE6653 — position and weather

sailwx.info

Track history (hours):
 
Tides and Currents Weather Stations Pressure Air Temp Water Temp Dewpoint Dewpoint Depression Visibility Wind Speed Wind Dir Waves Ship Positions

Captain Jimmy T Moran

Owner: Moran Towing Corp, New Cannan, CT. More information available from US FCC via Universal Licensing System and Coast Guard Vessel Documentation Center.

Last reported at 2015-Aug-27 22:16 UTC. Time now 2015-Aug-29 00:21 UTC.
Position N 29°58' W 090°02'.

Length 26 m; draft 4.9 m.

Type: Tug. MMSI: 367382920.

Date/timePositionNaut miles runAvg speedWind from/ knotsBaromVisibWave heightAir tempDewpointWater temp
2015-Aug-27 22:16N 29°58' W 090°02'0 0.0
2015-Aug-27 21:31N 29°58' W 090°02'0 0.0
2015-Aug-27 20:11N 29°58' W 090°02'1 0.3
2015-Aug-27 16:06N 29°57' W 090°03'1 1.3
2015-Aug-27 15:32N 29°58' W 090°03'0 0.4
2015-Aug-27 14:33N 29°58' W 090°02'0 0.0
2015-Aug-27 13:33N 29°58' W 090°02'0 0.0
2015-Aug-27 12:32N 29°58' W 090°02'0 0.0
2015-Aug-27 11:32N 29°58' W 090°02'0 0.0
2015-Aug-27 10:32N 29°58' W 090°02'0 0.0
2015-Aug-27 09:32N 29°58' W 090°02'0 0.0
2015-Aug-27 08:34N 29°58' W 090°02'0 0.0
2015-Aug-27 07:33N 29°58' W 090°02'0 0.0
2015-Aug-27 06:33N 29°58' W 090°02'0 0.0
2015-Aug-27 05:31N 29°58' W 090°02'0 0.0
2015-Aug-27 04:10N 29°58' W 090°02'1 0.1
2015-Aug-26 19:24N 29°57' W 090°03'3 0.2
2015-Aug-26 06:21N 29°56' W 089°60'2 2.5
2015-Aug-26 05:28N 29°58' W 090°02'0 0.0
2015-Aug-26 04:31N 29°58' W 090°02'0 0.0
2015-Aug-26 03:33N 29°58' W 090°02'0 0.1
2015-Aug-26 02:31N 29°58' W 090°02'0 0.0
2015-Aug-26 01:31N 29°58' W 090°02'0 0.0
2015-Aug-26 00:28N 29°58' W 090°02'0 0.0
2015-Aug-25 23:31N 29°58' W 090°02'0 0.0
2015-Aug-25 22:31N 29°58' W 090°02'0 0.0
2015-Aug-25 21:33N 29°58' W 090°02'0 0.0
2015-Aug-25 20:31N 29°58' W 090°02'0 0.0
2015-Aug-25 19:33N 29°58' W 090°02'0 0.0
2015-Aug-25 18:32N 29°58' W 090°02'2 2.3
2015-Aug-25 17:31N 29°56' W 090°04'0 0.1
2015-Aug-25 16:31N 29°55' W 090°04'0 0.0
2015-Aug-25 15:31N 29°55' W 090°04'2 0.3
2015-Aug-25 09:14N 29°55' W 090°06'0 0.3
2015-Aug-25 08:08N 29°55' W 090°06'2 0.2
2015-Aug-24 23:15N 29°55' W 090°04'0 0.1
2015-Aug-24 20:19N 29°55' W 090°04'2 1.1
2015-Aug-24 18:23N 29°55' W 090°06'0 0.0
2015-Aug-24 17:30N 29°55' W 090°06'0 0.2
2015-Aug-24 15:22N 29°55' W 090°05'0 0.2
2015-Aug-24 12:14N 29°55' W 090°06'0 0.0
2015-Aug-24 09:16N 29°55' W 090°06'5 6.8
2015-Aug-24 08:28N 29°56' W 089°60'3 0.1
2015-Aug-23 05:04N 29°56' W 090°04'2 0.2
2015-Aug-22 14:33N 29°57' W 090°01'0 0.1
2015-Aug-22 05:17N 29°57' W 090°02'6 0.3
2015-Aug-21 09:11N 29°55' W 090°08'3 0.3
2015-Aug-20 22:14N 29°55' W 090°05'2 2.9
2015-Aug-20 21:28N 29°57' W 090°03'0 0.0
2015-Aug-20 20:32N 29°57' W 090°03'0 0.0
2015-Aug-20 19:26N 29°57' W 090°03'0 0.0
2015-Aug-20 18:33N 29°57' W 090°03'0 0.0
2015-Aug-20 17:33N 29°57' W 090°03'0 0.0
2015-Aug-20 16:33N 29°57' W 090°03'2 1.9
2015-Aug-20 15:27N 29°55' W 090°04'0 0.0
2015-Aug-20 14:33N 29°55' W 090°04'0 0.1
2015-Aug-20 13:29N 29°55' W 090°04'4 0.2
2015-Aug-19 19:08N 29°57' W 090°01'2 3.4
2015-Aug-19 18:26N 29°57' W 090°03'0 0.0
2015-Aug-19 17:33N 29°57' W 090°03'0 0.0
2015-Aug-19 16:33N 29°57' W 090°03'2 2.0
2015-Aug-19 15:32N 29°57' W 090°01'0 0.0
2015-Aug-19 14:32N 29°57' W 090°01'0 0.0
2015-Aug-19 13:33N 29°57' W 090°01'0 0.0
2015-Aug-19 12:34N 29°57' W 090°01'0 0.0
2015-Aug-19 11:28N 29°57' W 090°01'0 0.0
2015-Aug-19 10:29N 29°57' W 090°01'0 0.0
2015-Aug-19 09:32N 29°57' W 090°01'0 0.0
2015-Aug-19 08:31N 29°57' W 090°01'0 0.0
2015-Aug-19 07:33N 29°57' W 090°01'0 0.0
2015-Aug-19 06:32N 29°57' W 090°01'0 0.0
2015-Aug-19 05:31N 29°57' W 090°01'0 0.0
2015-Aug-19 04:23N 29°57' W 090°01'0 0.0
2015-Aug-19 03:24N 29°57' W 090°01'3 0.9
2015-Aug-19 00:25N 29°56' W 090°04'1 1.0
2015-Aug-18 23:24N 29°55' W 090°05'0 0.2
2015-Aug-18 22:18N 29°55' W 090°04'0 0.0
2015-Aug-18 21:34N 29°55' W 090°04'0 0.0
2015-Aug-18 20:33N 29°55' W 090°04'0 0.0
2015-Aug-18 19:31N 29°55' W 090°04'0 0.0
2015-Aug-18 18:25N 29°55' W 090°04'0 0.0
2015-Aug-18 17:31N 29°55' W 090°04'0 0.0
2015-Aug-18 16:30N 29°55' W 090°04'0 0.0
2015-Aug-18 15:32N 29°55' W 090°04'  
Track history (hours):
 
Tides and Currents Weather Stations Pressure Air Temp Water Temp Dewpoint Dewpoint Depression Visibility Wind Speed Wind Dir Waves Ship Positions

Captain Jimmy T Moran

Owner: Moran Towing Corp, New Cannan, CT. More information available from US FCC via Universal Licensing System and Coast Guard Vessel Documentation Center.

Last reported at 2015-Aug-27 22:16 UTC. Time now 2015-Aug-29 00:21 UTC.
Position N 29°58' W 090°02'.

Length 26 m; draft 4.9 m.

Type: Tug. MMSI: 367382920.

Date/timePositionNaut miles runAvg speedWind from/ knotsBaromVisibWave heightAir tempDewpointWater temp
2015-Aug-27 22:16N 29°58' W 090°02'0 0.0
2015-Aug-27 21:31N 29°58' W 090°02'0 0.0
2015-Aug-27 20:11N 29°58' W 090°02'1 0.3
2015-Aug-27 16:06N 29°57' W 090°03'1 1.3
2015-Aug-27 15:32N 29°58' W 090°03'0 0.4
2015-Aug-27 14:33N 29°58' W 090°02'0 0.0
2015-Aug-27 13:33N 29°58' W 090°02'0 0.0
2015-Aug-27 12:32N 29°58' W 090°02'0 0.0
2015-Aug-27 11:32N 29°58' W 090°02'0 0.0
2015-Aug-27 10:32N 29°58' W 090°02'0 0.0
2015-Aug-27 09:32N 29°58' W 090°02'0 0.0
2015-Aug-27 08:34N 29°58' W 090°02'0 0.0
2015-Aug-27 07:33N 29°58' W 090°02'0 0.0
2015-Aug-27 06:33N 29°58' W 090°02'0 0.0
2015-Aug-27 05:31N 29°58' W 090°02'0 0.0
2015-Aug-27 04:10N 29°58' W 090°02'1 0.1
2015-Aug-26 19:24N 29°57' W 090°03'3 0.2
2015-Aug-26 06:21N 29°56' W 089°60'2 2.5
2015-Aug-26 05:28N 29°58' W 090°02'0 0.0
2015-Aug-26 04:31N 29°58' W 090°02'0 0.0
2015-Aug-26 03:33N 29°58' W 090°02'0 0.1
2015-Aug-26 02:31N 29°58' W 090°02'0 0.0
2015-Aug-26 01:31N 29°58' W 090°02'0 0.0
2015-Aug-26 00:28N 29°58' W 090°02'0 0.0
2015-Aug-25 23:31N 29°58' W 090°02'0 0.0
2015-Aug-25 22:31N 29°58' W 090°02'0 0.0
2015-Aug-25 21:33N 29°58' W 090°02'0 0.0
2015-Aug-25 20:31N 29°58' W 090°02'0 0.0
2015-Aug-25 19:33N 29°58' W 090°02'0 0.0
2015-Aug-25 18:32N 29°58' W 090°02'2 2.3
2015-Aug-25 17:31N 29°56' W 090°04'0 0.1
2015-Aug-25 16:31N 29°55' W 090°04'0 0.0
2015-Aug-25 15:31N 29°55' W 090°04'2 0.3
2015-Aug-25 09:14N 29°55' W 090°06'0 0.3
2015-Aug-25 08:08N 29°55' W 090°06'2 0.2
2015-Aug-24 23:15N 29°55' W 090°04'0 0.1
2015-Aug-24 20:19N 29°55' W 090°04'2 1.1
2015-Aug-24 18:23N 29°55' W 090°06'0 0.0
2015-Aug-24 17:30N 29°55' W 090°06'0 0.2
2015-Aug-24 15:22N 29°55' W 090°05'0 0.2
2015-Aug-24 12:14N 29°55' W 090°06'0 0.0
2015-Aug-24 09:16N 29°55' W 090°06'5 6.8
2015-Aug-24 08:28N 29°56' W 089°60'3 0.1
2015-Aug-23 05:04N 29°56' W 090°04'2 0.2
2015-Aug-22 14:33N 29°57' W 090°01'0 0.1
2015-Aug-22 05:17N 29°57' W 090°02'6 0.3
2015-Aug-21 09:11N 29°55' W 090°08'3 0.3
2015-Aug-20 22:14N 29°55' W 090°05'2 2.9
2015-Aug-20 21:28N 29°57' W 090°03'0 0.0
2015-Aug-20 20:32N 29°57' W 090°03'0 0.0
2015-Aug-20 19:26N 29°57' W 090°03'0 0.0
2015-Aug-20 18:33N 29°57' W 090°03'0 0.0
2015-Aug-20 17:33N 29°57' W 090°03'0 0.0
2015-Aug-20 16:33N 29°57' W 090°03'2 1.9
2015-Aug-20 15:27N 29°55' W 090°04'0 0.0
2015-Aug-20 14:33N 29°55' W 090°04'0 0.1
2015-Aug-20 13:29N 29°55' W 090°04'4 0.2
2015-Aug-19 19:08N 29°57' W 090°01'2 3.4
2015-Aug-19 18:26N 29°57' W 090°03'0 0.0
2015-Aug-19 17:33N 29°57' W 090°03'0 0.0
2015-Aug-19 16:33N 29°57' W 090°03'2 2.0
2015-Aug-19 15:32N 29°57' W 090°01'0 0.0
2015-Aug-19 14:32N 29°57' W 090°01'0 0.0
2015-Aug-19 13:33N 29°57' W 090°01'0 0.0
2015-Aug-19 12:34N 29°57' W 090°01'0 0.0
2015-Aug-19 11:28N 29°57' W 090°01'0 0.0
2015-Aug-19 10:29N 29°57' W 090°01'0 0.0
2015-Aug-19 09:32N 29°57' W 090°01'0 0.0
2015-Aug-19 08:31N 29°57' W 090°01'0 0.0
2015-Aug-19 07:33N 29°57' W 090°01'0 0.0
2015-Aug-19 06:32N 29°57' W 090°01'0 0.0
2015-Aug-19 05:31N 29°57' W 090°01'0 0.0
2015-Aug-19 04:23N 29°57' W 090°01'0 0.0
2015-Aug-19 03:24N 29°57' W 090°01'3 0.9
2015-Aug-19 00:25N 29°56' W 090°04'1 1.0
2015-Aug-18 23:24N 29°55' W 090°05'0 0.2
2015-Aug-18 22:18N 29°55' W 090°04'0 0.0
2015-Aug-18 21:34N 29°55' W 090°04'0 0.0
2015-Aug-18 20:33N 29°55' W 090°04'0 0.0
2015-Aug-18 19:31N 29°55' W 090°04'0 0.0
2015-Aug-18 18:25N 29°55' W 090°04'0 0.0
2015-Aug-18 17:31N 29°55' W 090°04'0 0.0
2015-Aug-18 16:30N 29°55' W 090°04'0 0.0
2015-Aug-18 15:32N 29°55' W 090°04'  

Dump ship's entire track history